Triumph IV — WBE7581 — position and weather

sailwx.info

Track history (hours):
 
Tides and Currents Weather Stations Pressure Air Temp Water Temp Dewpoint Dewpoint Depression Visibility Wind Speed Wind Dir Waves Ship Positions

Triumph IV

Last reported at 2018-Jun-23 04:15 UTC. Time now 2018-Jun-23 04:45 UTC.
Position N 45°36' W 122°41'.

Length 13 m.

MMSI: 367177660.

Date/timePositionNaut miles runAvg speedWind from/ knotsBaromVisibWave heightAir tempDewpointWater temp
2018-Jun-23 04:15N 45°36' W 122°41'0 0.0
2018-Jun-23 03:51N 45°36' W 122°41'0 0.0
2018-Jun-23 03:21N 45°36' W 122°41'0 0.0
2018-Jun-23 02:45N 45°36' W 122°41'0 0.0
2018-Jun-23 02:21N 45°36' W 122°41'0 0.0
2018-Jun-23 01:55N 45°36' W 122°41'0 0.0
2018-Jun-23 01:30N 45°36' W 122°41'0 0.0
2018-Jun-23 01:00N 45°36' W 122°41'0 0.0
2018-Jun-23 00:06N 45°36' W 122°41'0 0.0
2018-Jun-23 00:00N 45°36' W 122°41'0 0.0
2018-Jun-22 23:27N 45°36' W 122°41'0 0.0
2018-Jun-22 23:00N 45°36' W 122°41'3 4.5
2018-Jun-22 22:21N 45°38' W 122°44'1 3.9
2018-Jun-22 22:00N 45°38' W 122°42'1 1.5
2018-Jun-22 21:12N 45°37' W 122°41'2 6.3
2018-Jun-22 20:54N 45°38' W 122°43'0 0.3
2018-Jun-22 20:27N 45°38' W 122°44'0 0.0
2018-Jun-22 19:52N 45°38' W 122°44'0 0.1
2018-Jun-22 19:29N 45°38' W 122°44'2 4.6
2018-Jun-22 19:00N 45°37' W 122°41'1 2.9
2018-Jun-22 18:29N 45°36' W 122°39'1 1.1
2018-Jun-22 17:27N 45°36' W 122°41'0 0.0
2018-Jun-22 17:00N 45°36' W 122°41'0 0.0
2018-Jun-22 16:30N 45°36' W 122°41'0 0.0
2018-Jun-22 16:00N 45°36' W 122°41'0 0.0
2018-Jun-22 15:09N 45°36' W 122°41'0 0.0
2018-Jun-22 14:57N 45°36' W 122°41'0 0.0
2018-Jun-22 14:30N 45°36' W 122°41'0 0.0
2018-Jun-22 14:00N 45°36' W 122°41'3 5.0
2018-Jun-22 13:30N 45°38' W 122°44'1 1.3
2018-Jun-22 13:00N 45°39' W 122°44'1 0.5
2018-Jun-22 12:01N 45°38' W 122°45'0 0.0
2018-Jun-22 11:31N 45°38' W 122°45'0 0.0
2018-Jun-22 11:19N 45°38' W 122°45'0 0.0
2018-Jun-22 10:55N 45°38' W 122°45'0 0.0
2018-Jun-22 10:22N 45°38' W 122°45'0 0.0
2018-Jun-22 09:58N 45°38' W 122°45'0 0.0
2018-Jun-22 09:28N 45°38' W 122°45'2 4.1
2018-Jun-22 09:00N 45°40' W 122°46'2 2.4
2018-Jun-22 08:21N 45°39' W 122°45'3 7.4
2018-Jun-22 08:00N 45°37' W 122°42'1 1.1
2018-Jun-22 07:10N 45°36' W 122°41'0 0.0
2018-Jun-22 06:58N 45°36' W 122°41'0 0.0
2018-Jun-22 06:28N 45°36' W 122°41'0 0.0
2018-Jun-22 05:43N 45°36' W 122°41'0 0.0
2018-Jun-22 05:22N 45°36' W 122°41'0 0.0
2018-Jun-22 04:58N 45°36' W 122°41'0 0.0
2018-Jun-22 04:22N 45°36' W 122°41'0 0.0
2018-Jun-22 03:55N 45°36' W 122°41'1 1.5
2018-Jun-22 03:30N 45°37' W 122°42'2 4.1
2018-Jun-22 03:00N 45°38' W 122°44'2 1.7
2018-Jun-22 01:37N 45°37' W 122°41'0 0.0
2018-Jun-22 01:13N 45°37' W 122°41'1 3.1
2018-Jun-22 00:57N 45°38' W 122°42'3 6.1
2018-Jun-22 00:28N 45°39' W 122°45'4 8.8
2018-Jun-22 00:00N 45°36' W 122°41'0 0.0
2018-Jun-21 23:28N 45°36' W 122°41'0 0.0
2018-Jun-21 22:58N 45°36' W 122°41'0 0.0
2018-Jun-21 22:25N 45°36' W 122°41'0 0.0
2018-Jun-21 21:55N 45°36' W 122°41'0 0.0
2018-Jun-21 21:16N 45°36' W 122°41'0 0.0
2018-Jun-21 20:52N 45°36' W 122°41'0 0.0
2018-Jun-21 20:28N 45°36' W 122°41'0 0.0
2018-Jun-21 19:34N 45°36' W 122°41'0 0.0
2018-Jun-21 19:28N 45°36' W 122°41'0 0.0
2018-Jun-21 18:58N 45°36' W 122°41'0 0.0
2018-Jun-21 18:28N 45°36' W 122°41'1 1.1
2018-Jun-21 17:59N 45°37' W 122°42'5 8.9
2018-Jun-21 17:28N 45°40' W 122°46'5 7.2
2018-Jun-21 16:47N 45°37' W 122°41'0 0.0
2018-Jun-21 16:28N 45°37' W 122°41'1 2.6
2018-Jun-21 15:59N 45°36' W 122°40'1 1.4
2018-Jun-21 15:30N 45°36' W 122°41'0 0.3
2018-Jun-21 14:57N 45°36' W 122°41'0 0.0
2018-Jun-21 14:27N 45°36' W 122°41'0 0.0
2018-Jun-21 13:57N 45°36' W 122°41'2 4.1
2018-Jun-21 13:30N 45°37' W 122°43'2 2.9
2018-Jun-21 12:55N 45°39' W 122°45'3 6.6
2018-Jun-21 12:30N 45°37' W 122°42'1 1.0
2018-Jun-21 11:41N 45°36' W 122°41'0 0.0
2018-Jun-21 11:08N 45°36' W 122°41'0 0.0
2018-Jun-21 10:59N 45°36' W 122°41'0 0.0
2018-Jun-21 10:26N 45°36' W 122°41'0 0.0
2018-Jun-21 09:53N 45°36' W 122°41'0 0.0
2018-Jun-21 09:26N 45°36' W 122°41'0 0.0
2018-Jun-21 08:47N 45°36' W 122°41'0 0.0
2018-Jun-21 08:23N 45°36' W 122°41'0 0.0
2018-Jun-21 07:59N 45°36' W 122°41'0 0.0
2018-Jun-21 07:29N 45°36' W 122°41'0 0.0
2018-Jun-21 06:59N 45°36' W 122°41'0 0.0
2018-Jun-21 06:26N 45°36' W 122°41'0 0.0
2018-Jun-21 05:47N 45°36' W 122°41'0 0.0
2018-Jun-21 05:29N 45°36' W 122°41'0 0.0
2018-Jun-21 04:56N 45°36' W 122°41'0 0.2
2018-Jun-21 04:30N 45°37' W 122°41'3 6.1
2018-Jun-21 03:58N 45°39' W 122°45'3 4.7
2018-Jun-21 03:24N 45°37' W 122°42'1 0.5
2018-Jun-21 01:48N 45°36' W 122°41'3 7.0
2018-Jun-21 01:20N 45°39' W 122°45'1 2.1
2018-Jun-21 00:59N 45°38' W 122°44'1 0.8
2018-Jun-21 00:11N 45°38' W 122°44'2 5.5
2018-Jun-20 23:46N 45°36' W 122°41'0 0.0
2018-Jun-20 21:28N 45°36' W 122°41'0 0.0
2018-Jun-20 19:58N 45°36' W 122°41'0 0.0
2018-Jun-20 17:43N 45°36' W 122°41'0 0.0
2018-Jun-20 17:22N 45°36' W 122°41'0 0.0
2018-Jun-20 15:43N 45°36' W 122°41'0 0.0
2018-Jun-20 14:20N 45°36' W 122°41'0 0.0
2018-Jun-20 13:50N 45°36' W 122°41'0 0.0
2018-Jun-20 13:23N 45°36' W 122°41'0 0.0
2018-Jun-20 12:08N 45°36' W 122°41'0 0.0
2018-Jun-20 11:41N 45°36' W 122°41'0 0.0
2018-Jun-20 11:27N 45°36' W 122°41'0 0.0
2018-Jun-20 10:04N 45°36' W 122°41'0 0.0
2018-Jun-20 09:49N 45°36' W 122°41'0 0.0
2018-Jun-20 09:07N 45°36' W 122°41'0 0.0
2018-Jun-20 08:51N 45°36' W 122°41'0 0.0
2018-Jun-20 08:27N 45°36' W 122°41'0 0.0
2018-Jun-20 08:00N 45°36' W 122°41'0 0.0
2018-Jun-20 07:22N 45°36' W 122°41'0 0.0
2018-Jun-20 06:55N 45°36' W 122°41'0 0.0
2018-Jun-20 05:31N 45°36' W 122°41'0 0.0
2018-Jun-20 04:57N 45°36' W 122°41'0 0.0
2018-Jun-20 04:30N 45°36' W 122°41'0 0.0
2018-Jun-20 04:01N 45°36' W 122°41'0 0.0
2018-Jun-20 02:37N 45°36' W 122°41'0 0.0
2018-Jun-20 02:30N 45°36' W 122°41'0 0.0
2018-Jun-20 02:00N 45°36' W 122°41'0 0.0
2018-Jun-20 01:30N 45°36' W 122°41'0 0.0
2018-Jun-20 01:01N 45°36' W 122°41'0 0.0
2018-Jun-20 00:06N 45°36' W 122°41'0 0.0
2018-Jun-20 00:00N 45°36' W 122°41'0 0.0
2018-Jun-19 23:30N 45°36' W 122°41'0 0.0
2018-Jun-19 23:01N 45°36' W 122°41'0 0.0
2018-Jun-19 22:30N 45°36' W 122°41'0 0.0
2018-Jun-19 21:54N 45°36' W 122°41'0 0.0
2018-Jun-19 21:07N 45°36' W 122°41'0 0.0
2018-Jun-19 20:46N 45°36' W 122°41'0 0.0
2018-Jun-19 20:27N 45°36' W 122°41'0 0.0
2018-Jun-19 20:01N 45°36' W 122°41'0 0.0
2018-Jun-19 19:24N 45°36' W 122°41'0 0.0
2018-Jun-19 18:33N 45°36' W 122°41'0 0.0
2018-Jun-19 18:30N 45°36' W 122°41'0 0.0
2018-Jun-19 17:39N 45°36' W 122°41'0 0.0
2018-Jun-19 17:30N 45°36' W 122°41'0 0.0
2018-Jun-19 17:01N 45°36' W 122°41'0 0.0
2018-Jun-19 16:07N 45°36' W 122°41'0 0.0
2018-Jun-19 15:54N 45°36' W 122°41'0 0.0
2018-Jun-19 15:04N 45°36' W 122°41'0 0.0
2018-Jun-19 15:01N 45°36' W 122°41'0 0.0
2018-Jun-19 14:00N 45°36' W 122°41'0 0.0
2018-Jun-19 13:22N 45°36' W 122°41'0 0.0
2018-Jun-19 12:54N 45°36' W 122°41'0 0.0
2018-Jun-19 12:30N 45°36' W 122°41'0 0.0
2018-Jun-19 12:00N 45°36' W 122°41'0 0.0
2018-Jun-19 11:24N 45°36' W 122°41'0 0.0
2018-Jun-19 11:01N 45°36' W 122°41'0 0.0
2018-Jun-19 10:27N 45°36' W 122°41'0 0.0
2018-Jun-19 10:00N 45°36' W 122°41'0 0.0
2018-Jun-19 09:31N 45°36' W 122°41'0 0.0
2018-Jun-19 09:00N 45°36' W 122°41'0 0.0
2018-Jun-19 08:31N 45°36' W 122°41'0 0.0
2018-Jun-19 08:01N 45°36' W 122°41'0 0.0
2018-Jun-19 07:31N 45°36' W 122°41'0 0.0
2018-Jun-19 06:55N 45°36' W 122°41'0 0.0
2018-Jun-19 06:31N 45°36' W 122°41'0 0.5
2018-Jun-19 05:59N 45°37' W 122°41'4 8.4
2018-Jun-19 05:30N 45°39' W 122°46'1 1.8
2018-Jun-19 05:00N 45°39' W 122°45'4 4.3
2018-Jun-19 04:10N 45°36' W 122°41'0 0.0
2018-Jun-19 03:55N 45°36' W 122°41'0 0.0
2018-Jun-19 03:31N 45°36' W 122°41'0 0.0
2018-Jun-19 02:58N 45°36' W 122°41'0 0.0
2018-Jun-19 02:31N 45°36' W 122°41'0 0.0
2018-Jun-19 02:00N 45°36' W 122°41'0 0.0
2018-Jun-19 01:25N 45°36' W 122°41'0 0.0
2018-Jun-19 00:55N 45°36' W 122°41'0 0.0
2018-Jun-19 00:30N 45°36' W 122°41'0 0.0
2018-Jun-18 23:51N 45°36' W 122°41'0 0.0
2018-Jun-18 23:18N 45°36' W 122°41'0 0.0
2018-Jun-18 23:01N 45°36' W 122°41'0 0.0
2018-Jun-18 22:30N 45°36' W 122°41'0 0.0
2018-Jun-18 21:54N 45°36' W 122°41'0 0.0
2018-Jun-18 21:31N 45°36' W 122°41'0 0.0
2018-Jun-18 20:58N 45°36' W 122°41'0 0.0
2018-Jun-18 20:24N 45°36' W 122°41'0 0.0
2018-Jun-18 20:01N 45°36' W 122°41'0 0.0
2018-Jun-18 19:22N 45°36' W 122°41'0 0.0
2018-Jun-18 18:57N 45°36' W 122°41'0 0.0
2018-Jun-18 18:22N 45°36' W 122°41'1 1.6
2018-Jun-18 17:58N 45°37' W 122°42'1 1.2
2018-Jun-18 16:55N 45°38' W 122°42'1 2.1
2018-Jun-18 16:28N 45°38' W 122°44'2 3.6
2018-Jun-18 15:59N 45°37' W 122°42'1 2.0
2018-Jun-18 15:30N 45°36' W 122°41'0 0.0
2018-Jun-18 14:57N 45°36' W 122°41'0 0.0
2018-Jun-18 14:27N 45°36' W 122°41'0 0.0
2018-Jun-18 14:00N 45°36' W 122°41'0 0.0
2018-Jun-18 13:27N 45°36' W 122°41'0 0.0
2018-Jun-18 12:57N 45°36' W 122°41'0 0.0
2018-Jun-18 12:24N 45°36' W 122°41'0 0.0
2018-Jun-18 11:54N 45°36' W 122°41'0 0.0
2018-Jun-18 11:30N 45°36' W 122°41'0 0.0
2018-Jun-18 10:45N 45°36' W 122°41'0 0.0
2018-Jun-18 10:30N 45°36' W 122°41'0 0.0
2018-Jun-18 09:57N 45°36' W 122°41'0 0.0
2018-Jun-18 09:03N 45°36' W 122°41'0 0.0
2018-Jun-18 09:00N 45°36' W 122°41'0 0.0
2018-Jun-18 08:24N 45°36' W 122°41'0 0.0
2018-Jun-18 08:00N 45°36' W 122°41'0 0.0
2018-Jun-18 07:30N 45°36' W 122°41'0 0.0
2018-Jun-18 06:54N 45°36' W 122°41'0 0.0
2018-Jun-18 06:18N 45°36' W 122°41'0 0.0
2018-Jun-18 06:00N 45°36' W 122°41'0 0.0
2018-Jun-18 05:30N 45°36' W 122°41'0 0.0
2018-Jun-18 04:48N 45°36' W 122°41'0 0.0
2018-Jun-18 04:30N 45°36' W 122°41'0 0.0
2018-Jun-18 04:00N 45°36' W 122°41'0 0.0
2018-Jun-18 03:30N 45°36' W 122°41'0 0.0
2018-Jun-18 02:57N 45°36' W 122°41'0 0.0
2018-Jun-18 02:00N 45°36' W 122°41'0 0.0
2018-Jun-18 01:30N 45°36' W 122°41'0 0.0
2018-Jun-18 01:00N 45°36' W 122°41'0 0.0
2018-Jun-18 00:21N 45°36' W 122°41'0 0.0
2018-Jun-18 00:00N 45°36' W 122°41'0 0.0
2018-Jun-17 23:27N 45°36' W 122°41'0 0.0
2018-Jun-17 22:42N 45°36' W 122°41'0 0.0
2018-Jun-17 22:30N 45°36' W 122°41'0 0.0
2018-Jun-17 22:00N 45°36' W 122°41'0 0.0
2018-Jun-17 20:18N 45°36' W 122°41'0 0.0
2018-Jun-17 20:00N 45°36' W 122°41'0 0.0
2018-Jun-17 19:24N 45°36' W 122°41'0 0.0
2018-Jun-17 18:57N 45°36' W 122°41'0 0.0
2018-Jun-17 18:30N 45°36' W 122°41'0 0.0
2018-Jun-17 18:00N 45°36' W 122°41'0 0.0
2018-Jun-17 17:30N 45°36' W 122°41'0 0.0
2018-Jun-17 16:48N 45°36' W 122°41'0 0.0
2018-Jun-17 16:30N 45°36' W 122°41'0 0.0
2018-Jun-17 15:54N 45°36' W 122°41'0 1.2
2018-Jun-17 15:28N 45°37' W 122°42'3 7.1
2018-Jun-17 14:59N 45°39' W 122°45'0 0.8
2018-Jun-17 14:30N 45°39' W 122°45'3 5.1
2018-Jun-17 14:00N 45°37' W 122°42'1 1.6
2018-Jun-17 13:23N 45°36' W 122°41'0 0.0
2018-Jun-17 12:59N 45°36' W 122°41'0 0.0
2018-Jun-17 12:29N 45°36' W 122°41'2 4.8
2018-Jun-17 11:59N 45°38' W 122°44'2 5.1
2018-Jun-17 11:29N 45°40' W 122°46'4 8.8
2018-Jun-17 11:00N 45°37' W 122°42'1 1.1
2018-Jun-17 10:29N 45°36' W 122°41'0 0.0
2018-Jun-17 09:32N 45°36' W 122°41'0 0.0
2018-Jun-17 09:23N 45°36' W 122°41'0 0.0
2018-Jun-17 08:56N 45°36' W 122°41'0 0.0
2018-Jun-17 08:29N 45°36' W 122°41'0 0.0
2018-Jun-17 07:56N 45°36' W 122°41'0 0.0
2018-Jun-17 07:29N 45°36' W 122°41'0 0.0
2018-Jun-17 06:56N 45°36' W 122°41'0 0.0
2018-Jun-17 06:29N 45°36' W 122°41'0 0.0
2018-Jun-17 05:59N 45°36' W 122°41'0 0.0
2018-Jun-17 05:29N 45°36' W 122°41'0 0.0
2018-Jun-17 04:50N 45°36' W 122°41'0 0.0
2018-Jun-17 04:29N 45°36' W 122°41'0 0.0
2018-Jun-17 03:59N 45°36' W 122°41'0 0.0
2018-Jun-17 03:29N 45°36' W 122°41'0 0.0
2018-Jun-17 02:59N 45°36' W 122°41'0 0.0
2018-Jun-17 02:29N 45°36' W 122°41'0 0.0
2018-Jun-17 01:50N 45°36' W 122°41'0 0.0
2018-Jun-17 01:26N 45°36' W 122°41'0 0.0
2018-Jun-17 00:44N 45°36' W 122°41'0 0.0
2018-Jun-17 00:29N 45°36' W 122°41'0 0.0
2018-Jun-16 23:59N 45°36' W 122°41'0 0.0
2018-Jun-16 23:26N 45°36' W 122°41'0 0.0
2018-Jun-16 22:50N 45°36' W 122°41'0 0.0
2018-Jun-16 22:29N 45°36' W 122°41'0 0.0
2018-Jun-16 21:59N 45°36' W 122°41'0 0.0
2018-Jun-16 21:17N 45°36' W 122°41'0 0.0
2018-Jun-16 20:59N 45°36' W 122°41'0 0.0
2018-Jun-16 20:23N 45°36' W 122°41'0 0.0
2018-Jun-16 19:14N 45°36' W 122°41'0 0.0
2018-Jun-16 18:56N 45°36' W 122°41'0 0.0
2018-Jun-16 18:29N 45°36' W 122°41'0 0.0
2018-Jun-16 17:59N 45°36' W 122°41'0 0.0
2018-Jun-16 17:17N 45°36' W 122°41'0 0.0
2018-Jun-16 16:56N 45°36' W 122°41'0 0.0
2018-Jun-16 16:29N 45°36' W 122°41'0 0.0
2018-Jun-16 15:56N 45°36' W 122°41'0 0.0
2018-Jun-16 15:26N 45°36' W 122°41'0 0.0
2018-Jun-16 14:56N 45°36' W 122°41'0 0.0
2018-Jun-16 14:26N 45°36' W 122°41'0 0.0
2018-Jun-16 13:59N 45°36' W 122°41'0 0.0
2018-Jun-16 13:23N 45°36' W 122°41'0 0.0
2018-Jun-16 12:53N 45°36' W 122°41'0 0.0
2018-Jun-16 12:26N 45°36' W 122°41'0 0.0
2018-Jun-16 11:59N 45°36' W 122°41'0 0.0
2018-Jun-16 11:29N 45°36' W 122°41'0 0.0
2018-Jun-16 10:59N 45°36' W 122°41'0 0.0
2018-Jun-16 10:23N 45°36' W 122°41'0 0.0
2018-Jun-16 09:59N 45°36' W 122°41'0 0.0
2018-Jun-16 09:20N 45°36' W 122°41'0 0.0
2018-Jun-16 08:59N 45°36' W 122°41'0 0.0
2018-Jun-16 08:20N 45°36' W 122°41'0 0.0
2018-Jun-16 07:59N 45°36' W 122°41'0 0.0
2018-Jun-16 07:20N 45°36' W 122°41'0 0.0
2018-Jun-16 06:59N 45°36' W 122°41'0 0.0
2018-Jun-16 06:29N 45°36' W 122°41'0 0.0
2018-Jun-16 05:56N 45°36' W 122°41'0 0.0
2018-Jun-16 05:26N 45°36' W 122°41'0 0.0
2018-Jun-16 04:26N 45°36' W 122°41'0 0.0
2018-Jun-16 03:41N 45°36' W 122°41'0 0.0
2018-Jun-16 03:29N 45°36' W 122°41'0 0.0
2018-Jun-16 02:59N 45°36' W 122°41'0 0.0
2018-Jun-16 02:23N 45°36' W 122°41'0 0.0
2018-Jun-16 01:50N 45°36' W 122°41'0 0.0
2018-Jun-16 01:29N 45°36' W 122°41'0 0.0
2018-Jun-16 01:00N 45°36' W 122°41'3 5.2
2018-Jun-16 00:30N 45°38' W 122°44'4 7.1
2018-Jun-15 23:59N 45°41' W 122°46'0 0.9
2018-Jun-15 23:30N 45°41' W 122°47'2 4.7
2018-Jun-15 23:00N 45°39' W 122°45'0 0.0
2018-Jun-15 22:23N 45°39' W 122°45'3 6.6
2018-Jun-15 22:00N 45°37' W 122°42'1 2.2
2018-Jun-15 21:30N 45°36' W 122°41'0 0.2
2018-Jun-15 20:58N 45°36' W 122°41'0 0.0
2018-Jun-15 20:19N 45°36' W 122°41'0 0.0
2018-Jun-15 19:58N 45°36' W 122°41'0 0.0
2018-Jun-15 19:28N 45°36' W 122°41'0 0.0
2018-Jun-15 18:55N 45°36' W 122°41'0 0.0
2018-Jun-15 18:22N 45°36' W 122°41'0 0.0
2018-Jun-15 17:46N 45°36' W 122°41'0 0.0
2018-Jun-15 17:19N 45°36' W 122°41'0 0.0
2018-Jun-15 16:52N 45°36' W 122°41'0 0.0
2018-Jun-15 16:28N 45°36' W 122°41'0 0.0
2018-Jun-15 15:49N 45°36' W 122°41'0 0.0
2018-Jun-15 15:28N 45°36' W 122°41'0 0.0
2018-Jun-15 14:55N 45°36' W 122°41'0 0.0
2018-Jun-15 14:25N 45°36' W 122°41'0 0.0
2018-Jun-15 13:43N 45°36' W 122°41'0 0.0
2018-Jun-15 13:28N 45°36' W 122°41'0 0.0
2018-Jun-15 12:52N 45°36' W 122°41'0 0.0
2018-Jun-15 12:22N 45°36' W 122°41'0 0.0
2018-Jun-15 11:46N 45°36' W 122°41'0 0.0
2018-Jun-15 11:28N 45°36' W 122°41'0 0.0
2018-Jun-15 10:58N 45°36' W 122°41'0 0.0
2018-Jun-15 10:25N 45°36' W 122°41'0 0.0
2018-Jun-15 09:31N 45°36' W 122°41'0 0.0
2018-Jun-15 09:25N 45°36' W 122°41'0 0.0
2018-Jun-15 08:58N 45°36' W 122°41'0 0.0
2018-Jun-15 08:25N 45°36' W 122°41'0 0.0
2018-Jun-15 07:58N 45°36' W 122°41'0 0.0
2018-Jun-15 06:58N 45°36' W 122°41'0 0.0
2018-Jun-15 06:25N 45°36' W 122°41'0 0.0
2018-Jun-15 05:52N 45°36' W 122°41'0 0.0
2018-Jun-15 05:25N 45°36' W 122°41'0 0.0
2018-Jun-15 04:58N 45°36' W 122°41'0 0.0
2018-Jun-15 04:19N 45°36' W 122°41'0 0.0
2018-Jun-15 03:58N 45°36' W 122°41'0 0.0
2018-Jun-15 02:58N 45°36' W 122°41'0 0.0
2018-Jun-15 02:28N 45°36' W 122°41'0 0.0
2018-Jun-15 01:58N 45°36' W 122°41'0 0.0
2018-Jun-15 01:19N 45°36' W 122°41'0 0.0
2018-Jun-15 00:52N 45°36' W 122°41'0 0.0
2018-Jun-15 00:28N 45°36' W 122°41'1 2.7
2018-Jun-15 00:00N 45°37' W 122°43'4 7.1
2018-Jun-14 23:28N 45°40' W 122°46'3 5.3
2018-Jun-14 22:59N 45°38' W 122°43'2 3.5
2018-Jun-14 22:30N 45°39' W 122°45'2 3.9
2018-Jun-14 22:01N 45°38' W 122°43'1 2.8
2018-Jun-14 21:30N 45°39' W 122°45'3 5.0
2018-Jun-14 20:50N 45°37' W 122°41'1 2.9
2018-Jun-14 20:30N 45°38' W 122°42'2 4.4
2018-Jun-14 19:56N 45°39' W 122°45'0 0.0
2018-Jun-14 19:23N 45°39' W 122°45'0 0.0
2018-Jun-14 18:59N 45°39' W 122°45'0 0.0
2018-Jun-14 18:26N 45°39' W 122°45'0 0.0
2018-Jun-14 17:56N 45°39' W 122°45'1 2.9
2018-Jun-14 17:30N 45°38' W 122°43'0 0.0
2018-Jun-14 16:59N 45°38' W 122°43'0 0.3
2018-Jun-14 16:30N 45°38' W 122°43'0 0.2
2018-Jun-14 15:56N 45°38' W 122°43'0 0.0
2018-Jun-14 15:17N 45°38' W 122°43'1 3.8
2018-Jun-14 14:59N 45°39' W 122°45'1 2.0
2018-Jun-14 14:23N 45°38' W 122°43'1 1.9
2018-Jun-14 14:00N 45°39' W 122°44'0 0.3
2018-Jun-14 13:13N 45°39' W 122°45'1 5.4
2018-Jun-14 12:59N 45°38' W 122°43'2 4.0
2018-Jun-14 12:30N 45°37' W 122°41'1 2.2
2018-Jun-14 11:59N 45°36' W 122°40'1 1.2
2018-Jun-14 11:27N 45°36' W 122°41'0 0.0
2018-Jun-14 11:00N 45°36' W 122°41'0 0.0
2018-Jun-14 10:27N 45°36' W 122°41'0 0.0
2018-Jun-14 09:42N 45°36' W 122°41'0 0.0
2018-Jun-14 09:30N 45°36' W 122°41'0 0.0
2018-Jun-14 09:00N 45°36' W 122°41'0 0.0
2018-Jun-14 08:30N 45°36' W 122°41'0 0.0
2018-Jun-14 08:00N 45°36' W 122°41'0 0.0
2018-Jun-14 07:30N 45°36' W 122°41'0 0.0
2018-Jun-14 06:51N 45°36' W 122°41'0 0.0
2018-Jun-14 06:27N 45°36' W 122°41'0 0.0
2018-Jun-14 06:00N 45°36' W 122°41'0 0.0
2018-Jun-14 05:21N 45°36' W 122°41'0 0.0
2018-Jun-14 05:00N 45°36' W 122°41'0 0.0
2018-Jun-14 04:30N 45°36' W 122°41'1 1.0
2018-Jun-14 03:57N 45°37' W 122°42'5 5.4
2018-Jun-14 03:01N 45°41' W 122°46'0 0.2
2018-Jun-14 03:00N 45°41' W 122°46'4 2.0
2018-Jun-14 01:03N 45°38' W 122°42'110.0
2018-Jun-14 00:57N 45°38' W 122°43'1 2.0
2018-Jun-14 00:21N 45°39' W 122°45'2 5.7
2018-Jun-14 00:01N 45°37' W 122°43'2 3.5
2018-Jun-13 23:31N 45°36' W 122°41'0 0.3
2018-Jun-13 22:57N 45°36' W 122°41'0 0.0
2018-Jun-13 22:30N 45°36' W 122°41'0 0.0
2018-Jun-13 22:00N 45°36' W 122°41'0 0.0
2018-Jun-13 21:30N 45°36' W 122°41'0 0.0
2018-Jun-13 21:00N 45°36' W 122°41'0 0.0
2018-Jun-13 20:30N 45°36' W 122°41'0 0.0
2018-Jun-13 19:57N 45°36' W 122°41'0 0.0
2018-Jun-13 19:30N 45°36' W 122°41'0 0.0
2018-Jun-13 19:00N 45°36' W 122°41'0 0.0
2018-Jun-13 18:30N 45°36' W 122°41'0 0.0
2018-Jun-13 18:00N 45°36' W 122°41'0 0.0
2018-Jun-13 17:24N 45°36' W 122°41'0 0.0
2018-Jun-13 16:48N 45°36' W 122°41'0 0.0
2018-Jun-13 16:30N 45°36' W 122°41'0 0.0
2018-Jun-13 16:00N 45°36' W 122°41'0 0.0
2018-Jun-13 15:24N 45°36' W 122°41'1 1.7
2018-Jun-13 15:00N 45°37' W 122°42'4 8.7
2018-Jun-13 14:30N 45°40' W 122°46'3 5.0
2018-Jun-13 13:58N 45°38' W 122°43'2 4.1
2018-Jun-13 13:30N 45°39' W 122°46'1 1.6
2018-Jun-13 12:57N 45°39' W 122°45'1 2.4
2018-Jun-13 12:26N 45°38' W 122°44'2 5.1
2018-Jun-13 11:59N 45°36' W 122°41'0 0.0
2018-Jun-13 11:29N 45°36' W 122°41'0 0.0
2018-Jun-13 10:59N 45°36' W 122°41'0 0.0
2018-Jun-13 10:29N 45°36' W 122°41'0 0.0
2018-Jun-13 09:59N 45°36' W 122°41'0 0.0
2018-Jun-13 09:26N 45°36' W 122°41'0 0.0
2018-Jun-13 08:53N 45°36' W 122°41'0 0.0
2018-Jun-13 08:29N 45°36' W 122°41'0 0.0
2018-Jun-13 07:56N 45°36' W 122°41'1 3.0
2018-Jun-13 07:30N 45°36' W 122°39'4 6.9
2018-Jun-13 06:59N 45°38' W 122°43'3 3.5
2018-Jun-13 06:06N 45°41' W 122°46'0 0.0
2018-Jun-13 06:00N 45°41' W 122°46'0 0.0
2018-Jun-13 05:30N 45°41' W 122°46'0 0.0
2018-Jun-13 04:57N 45°41' W 122°46'0 0.0
2018-Jun-13 04:24N 45°41' W 122°46'  
Track history (hours):
 
Tides and Currents Weather Stations Pressure Air Temp Water Temp Dewpoint Dewpoint Depression Visibility Wind Speed Wind Dir Waves Ship Positions

Triumph IV

Last reported at 2018-Jun-23 04:15 UTC. Time now 2018-Jun-23 04:45 UTC.
Position N 45°36' W 122°41'.

Length 13 m.

MMSI: 367177660.

Date/timePositionNaut miles runAvg speedWind from/ knotsBaromVisibWave heightAir tempDewpointWater temp
2018-Jun-23 04:15N 45°36' W 122°41'0 0.0
2018-Jun-23 03:51N 45°36' W 122°41'0 0.0
2018-Jun-23 03:21N 45°36' W 122°41'0 0.0
2018-Jun-23 02:45N 45°36' W 122°41'0 0.0
2018-Jun-23 02:21N 45°36' W 122°41'0 0.0
2018-Jun-23 01:55N 45°36' W 122°41'0 0.0
2018-Jun-23 01:30N 45°36' W 122°41'0 0.0
2018-Jun-23 01:00N 45°36' W 122°41'0 0.0
2018-Jun-23 00:06N 45°36' W 122°41'0 0.0
2018-Jun-23 00:00N 45°36' W 122°41'0 0.0
2018-Jun-22 23:27N 45°36' W 122°41'0 0.0
2018-Jun-22 23:00N 45°36' W 122°41'3 4.5
2018-Jun-22 22:21N 45°38' W 122°44'1 3.9
2018-Jun-22 22:00N 45°38' W 122°42'1 1.5
2018-Jun-22 21:12N 45°37' W 122°41'2 6.3
2018-Jun-22 20:54N 45°38' W 122°43'0 0.3
2018-Jun-22 20:27N 45°38' W 122°44'0 0.0
2018-Jun-22 19:52N 45°38' W 122°44'0 0.1
2018-Jun-22 19:29N 45°38' W 122°44'2 4.6
2018-Jun-22 19:00N 45°37' W 122°41'1 2.9
2018-Jun-22 18:29N 45°36' W 122°39'1 1.1
2018-Jun-22 17:27N 45°36' W 122°41'0 0.0
2018-Jun-22 17:00N 45°36' W 122°41'0 0.0
2018-Jun-22 16:30N 45°36' W 122°41'0 0.0
2018-Jun-22 16:00N 45°36' W 122°41'0 0.0
2018-Jun-22 15:09N 45°36' W 122°41'0 0.0
2018-Jun-22 14:57N 45°36' W 122°41'0 0.0
2018-Jun-22 14:30N 45°36' W 122°41'0 0.0
2018-Jun-22 14:00N 45°36' W 122°41'3 5.0
2018-Jun-22 13:30N 45°38' W 122°44'1 1.3
2018-Jun-22 13:00N 45°39' W 122°44'1 0.5
2018-Jun-22 12:01N 45°38' W 122°45'0 0.0
2018-Jun-22 11:31N 45°38' W 122°45'0 0.0
2018-Jun-22 11:19N 45°38' W 122°45'0 0.0
2018-Jun-22 10:55N 45°38' W 122°45'0 0.0
2018-Jun-22 10:22N 45°38' W 122°45'0 0.0
2018-Jun-22 09:58N 45°38' W 122°45'0 0.0
2018-Jun-22 09:28N 45°38' W 122°45'2 4.1
2018-Jun-22 09:00N 45°40' W 122°46'2 2.4
2018-Jun-22 08:21N 45°39' W 122°45'3 7.4
2018-Jun-22 08:00N 45°37' W 122°42'1 1.1
2018-Jun-22 07:10N 45°36' W 122°41'0 0.0
2018-Jun-22 06:58N 45°36' W 122°41'0 0.0
2018-Jun-22 06:28N 45°36' W 122°41'0 0.0
2018-Jun-22 05:43N 45°36' W 122°41'0 0.0
2018-Jun-22 05:22N 45°36' W 122°41'0 0.0
2018-Jun-22 04:58N 45°36' W 122°41'0 0.0
2018-Jun-22 04:22N 45°36' W 122°41'0 0.0
2018-Jun-22 03:55N 45°36' W 122°41'1 1.5
2018-Jun-22 03:30N 45°37' W 122°42'2 4.1
2018-Jun-22 03:00N 45°38' W 122°44'2 1.7
2018-Jun-22 01:37N 45°37' W 122°41'0 0.0
2018-Jun-22 01:13N 45°37' W 122°41'1 3.1
2018-Jun-22 00:57N 45°38' W 122°42'3 6.1
2018-Jun-22 00:28N 45°39' W 122°45'4 8.8
2018-Jun-22 00:00N 45°36' W 122°41'0 0.0
2018-Jun-21 23:28N 45°36' W 122°41'0 0.0
2018-Jun-21 22:58N 45°36' W 122°41'0 0.0
2018-Jun-21 22:25N 45°36' W 122°41'0 0.0
2018-Jun-21 21:55N 45°36' W 122°41'0 0.0
2018-Jun-21 21:16N 45°36' W 122°41'0 0.0
2018-Jun-21 20:52N 45°36' W 122°41'0 0.0
2018-Jun-21 20:28N 45°36' W 122°41'0 0.0
2018-Jun-21 19:34N 45°36' W 122°41'0 0.0
2018-Jun-21 19:28N 45°36' W 122°41'0 0.0
2018-Jun-21 18:58N 45°36' W 122°41'0 0.0
2018-Jun-21 18:28N 45°36' W 122°41'1 1.1
2018-Jun-21 17:59N 45°37' W 122°42'5 8.9
2018-Jun-21 17:28N 45°40' W 122°46'5 7.2
2018-Jun-21 16:47N 45°37' W 122°41'0 0.0
2018-Jun-21 16:28N 45°37' W 122°41'1 2.6
2018-Jun-21 15:59N 45°36' W 122°40'1 1.4
2018-Jun-21 15:30N 45°36' W 122°41'0 0.3
2018-Jun-21 14:57N 45°36' W 122°41'0 0.0
2018-Jun-21 14:27N 45°36' W 122°41'0 0.0
2018-Jun-21 13:57N 45°36' W 122°41'2 4.1
2018-Jun-21 13:30N 45°37' W 122°43'2 2.9
2018-Jun-21 12:55N 45°39' W 122°45'3 6.6
2018-Jun-21 12:30N 45°37' W 122°42'1 1.0
2018-Jun-21 11:41N 45°36' W 122°41'0 0.0
2018-Jun-21 11:08N 45°36' W 122°41'0 0.0
2018-Jun-21 10:59N 45°36' W 122°41'0 0.0
2018-Jun-21 10:26N 45°36' W 122°41'0 0.0
2018-Jun-21 09:53N 45°36' W 122°41'0 0.0
2018-Jun-21 09:26N 45°36' W 122°41'0 0.0
2018-Jun-21 08:47N 45°36' W 122°41'0 0.0
2018-Jun-21 08:23N 45°36' W 122°41'0 0.0
2018-Jun-21 07:59N 45°36' W 122°41'0 0.0
2018-Jun-21 07:29N 45°36' W 122°41'0 0.0
2018-Jun-21 06:59N 45°36' W 122°41'0 0.0
2018-Jun-21 06:26N 45°36' W 122°41'0 0.0
2018-Jun-21 05:47N 45°36' W 122°41'0 0.0
2018-Jun-21 05:29N 45°36' W 122°41'0 0.0
2018-Jun-21 04:56N 45°36' W 122°41'0 0.2
2018-Jun-21 04:30N 45°37' W 122°41'3 6.1
2018-Jun-21 03:58N 45°39' W 122°45'3 4.7
2018-Jun-21 03:24N 45°37' W 122°42'1 0.5
2018-Jun-21 01:48N 45°36' W 122°41'3 7.0
2018-Jun-21 01:20N 45°39' W 122°45'1 2.1
2018-Jun-21 00:59N 45°38' W 122°44'1 0.8
2018-Jun-21 00:11N 45°38' W 122°44'2 5.5
2018-Jun-20 23:46N 45°36' W 122°41'0 0.0
2018-Jun-20 21:28N 45°36' W 122°41'0 0.0
2018-Jun-20 19:58N 45°36' W 122°41'0 0.0
2018-Jun-20 17:43N 45°36' W 122°41'0 0.0
2018-Jun-20 17:22N 45°36' W 122°41'0 0.0
2018-Jun-20 15:43N 45°36' W 122°41'0 0.0
2018-Jun-20 14:20N 45°36' W 122°41'0 0.0
2018-Jun-20 13:50N 45°36' W 122°41'0 0.0
2018-Jun-20 13:23N 45°36' W 122°41'0 0.0
2018-Jun-20 12:08N 45°36' W 122°41'0 0.0
2018-Jun-20 11:41N 45°36' W 122°41'0 0.0
2018-Jun-20 11:27N 45°36' W 122°41'0 0.0
2018-Jun-20 10:04N 45°36' W 122°41'0 0.0
2018-Jun-20 09:49N 45°36' W 122°41'0 0.0
2018-Jun-20 09:07N 45°36' W 122°41'0 0.0
2018-Jun-20 08:51N 45°36' W 122°41'0 0.0
2018-Jun-20 08:27N 45°36' W 122°41'0 0.0
2018-Jun-20 08:00N 45°36' W 122°41'0 0.0
2018-Jun-20 07:22N 45°36' W 122°41'0 0.0
2018-Jun-20 06:55N 45°36' W 122°41'0 0.0
2018-Jun-20 05:31N 45°36' W 122°41'0 0.0
2018-Jun-20 04:57N 45°36' W 122°41'0 0.0
2018-Jun-20 04:30N 45°36' W 122°41'0 0.0
2018-Jun-20 04:01N 45°36' W 122°41'0 0.0
2018-Jun-20 02:37N 45°36' W 122°41'0 0.0
2018-Jun-20 02:30N 45°36' W 122°41'0 0.0
2018-Jun-20 02:00N 45°36' W 122°41'0 0.0
2018-Jun-20 01:30N 45°36' W 122°41'0 0.0
2018-Jun-20 01:01N 45°36' W 122°41'0 0.0
2018-Jun-20 00:06N 45°36' W 122°41'0 0.0
2018-Jun-20 00:00N 45°36' W 122°41'0 0.0
2018-Jun-19 23:30N 45°36' W 122°41'0 0.0
2018-Jun-19 23:01N 45°36' W 122°41'0 0.0
2018-Jun-19 22:30N 45°36' W 122°41'0 0.0
2018-Jun-19 21:54N 45°36' W 122°41'0 0.0
2018-Jun-19 21:07N 45°36' W 122°41'0 0.0
2018-Jun-19 20:46N 45°36' W 122°41'0 0.0
2018-Jun-19 20:27N 45°36' W 122°41'0 0.0
2018-Jun-19 20:01N 45°36' W 122°41'0 0.0
2018-Jun-19 19:24N 45°36' W 122°41'0 0.0
2018-Jun-19 18:33N 45°36' W 122°41'0 0.0
2018-Jun-19 18:30N 45°36' W 122°41'0 0.0
2018-Jun-19 17:39N 45°36' W 122°41'0 0.0
2018-Jun-19 17:30N 45°36' W 122°41'0 0.0
2018-Jun-19 17:01N 45°36' W 122°41'0 0.0
2018-Jun-19 16:07N 45°36' W 122°41'0 0.0
2018-Jun-19 15:54N 45°36' W 122°41'0 0.0
2018-Jun-19 15:04N 45°36' W 122°41'0 0.0
2018-Jun-19 15:01N 45°36' W 122°41'0 0.0
2018-Jun-19 14:00N 45°36' W 122°41'0 0.0
2018-Jun-19 13:22N 45°36' W 122°41'0 0.0
2018-Jun-19 12:54N 45°36' W 122°41'0 0.0
2018-Jun-19 12:30N 45°36' W 122°41'0 0.0
2018-Jun-19 12:00N 45°36' W 122°41'0 0.0
2018-Jun-19 11:24N 45°36' W 122°41'0 0.0
2018-Jun-19 11:01N 45°36' W 122°41'0 0.0
2018-Jun-19 10:27N 45°36' W 122°41'0 0.0
2018-Jun-19 10:00N 45°36' W 122°41'0 0.0
2018-Jun-19 09:31N 45°36' W 122°41'0 0.0
2018-Jun-19 09:00N 45°36' W 122°41'0 0.0
2018-Jun-19 08:31N 45°36' W 122°41'0 0.0
2018-Jun-19 08:01N 45°36' W 122°41'0 0.0
2018-Jun-19 07:31N 45°36' W 122°41'0 0.0
2018-Jun-19 06:55N 45°36' W 122°41'0 0.0
2018-Jun-19 06:31N 45°36' W 122°41'0 0.5
2018-Jun-19 05:59N 45°37' W 122°41'4 8.4
2018-Jun-19 05:30N 45°39' W 122°46'1 1.8
2018-Jun-19 05:00N 45°39' W 122°45'4 4.3
2018-Jun-19 04:10N 45°36' W 122°41'0 0.0
2018-Jun-19 03:55N 45°36' W 122°41'0 0.0
2018-Jun-19 03:31N 45°36' W 122°41'0 0.0
2018-Jun-19 02:58N 45°36' W 122°41'0 0.0
2018-Jun-19 02:31N 45°36' W 122°41'0 0.0
2018-Jun-19 02:00N 45°36' W 122°41'0 0.0
2018-Jun-19 01:25N 45°36' W 122°41'0 0.0
2018-Jun-19 00:55N 45°36' W 122°41'0 0.0
2018-Jun-19 00:30N 45°36' W 122°41'0 0.0
2018-Jun-18 23:51N 45°36' W 122°41'0 0.0
2018-Jun-18 23:18N 45°36' W 122°41'0 0.0
2018-Jun-18 23:01N 45°36' W 122°41'0 0.0
2018-Jun-18 22:30N 45°36' W 122°41'0 0.0
2018-Jun-18 21:54N 45°36' W 122°41'0 0.0
2018-Jun-18 21:31N 45°36' W 122°41'0 0.0
2018-Jun-18 20:58N 45°36' W 122°41'0 0.0
2018-Jun-18 20:24N 45°36' W 122°41'0 0.0
2018-Jun-18 20:01N 45°36' W 122°41'0 0.0
2018-Jun-18 19:22N 45°36' W 122°41'0 0.0
2018-Jun-18 18:57N 45°36' W 122°41'0 0.0
2018-Jun-18 18:22N 45°36' W 122°41'1 1.6
2018-Jun-18 17:58N 45°37' W 122°42'1 1.2
2018-Jun-18 16:55N 45°38' W 122°42'1 2.1
2018-Jun-18 16:28N 45°38' W 122°44'2 3.6
2018-Jun-18 15:59N 45°37' W 122°42'1 2.0
2018-Jun-18 15:30N 45°36' W 122°41'0 0.0
2018-Jun-18 14:57N 45°36' W 122°41'0 0.0
2018-Jun-18 14:27N 45°36' W 122°41'0 0.0
2018-Jun-18 14:00N 45°36' W 122°41'0 0.0
2018-Jun-18 13:27N 45°36' W 122°41'0 0.0
2018-Jun-18 12:57N 45°36' W 122°41'0 0.0
2018-Jun-18 12:24N 45°36' W 122°41'0 0.0
2018-Jun-18 11:54N 45°36' W 122°41'0 0.0
2018-Jun-18 11:30N 45°36' W 122°41'0 0.0
2018-Jun-18 10:45N 45°36' W 122°41'0 0.0
2018-Jun-18 10:30N 45°36' W 122°41'0 0.0
2018-Jun-18 09:57N 45°36' W 122°41'0 0.0
2018-Jun-18 09:03N 45°36' W 122°41'0 0.0
2018-Jun-18 09:00N 45°36' W 122°41'0 0.0
2018-Jun-18 08:24N 45°36' W 122°41'0 0.0
2018-Jun-18 08:00N 45°36' W 122°41'0 0.0
2018-Jun-18 07:30N 45°36' W 122°41'0 0.0
2018-Jun-18 06:54N 45°36' W 122°41'0 0.0
2018-Jun-18 06:18N 45°36' W 122°41'0 0.0
2018-Jun-18 06:00N 45°36' W 122°41'0 0.0
2018-Jun-18 05:30N 45°36' W 122°41'0 0.0
2018-Jun-18 04:48N 45°36' W 122°41'0 0.0
2018-Jun-18 04:30N 45°36' W 122°41'0 0.0
2018-Jun-18 04:00N 45°36' W 122°41'0 0.0
2018-Jun-18 03:30N 45°36' W 122°41'0 0.0
2018-Jun-18 02:57N 45°36' W 122°41'0 0.0
2018-Jun-18 02:00N 45°36' W 122°41'0 0.0
2018-Jun-18 01:30N 45°36' W 122°41'0 0.0
2018-Jun-18 01:00N 45°36' W 122°41'0 0.0
2018-Jun-18 00:21N 45°36' W 122°41'0 0.0
2018-Jun-18 00:00N 45°36' W 122°41'0 0.0
2018-Jun-17 23:27N 45°36' W 122°41'0 0.0
2018-Jun-17 22:42N 45°36' W 122°41'0 0.0
2018-Jun-17 22:30N 45°36' W 122°41'0 0.0
2018-Jun-17 22:00N 45°36' W 122°41'0 0.0
2018-Jun-17 20:18N 45°36' W 122°41'0 0.0
2018-Jun-17 20:00N 45°36' W 122°41'0 0.0
2018-Jun-17 19:24N 45°36' W 122°41'0 0.0
2018-Jun-17 18:57N 45°36' W 122°41'0 0.0
2018-Jun-17 18:30N 45°36' W 122°41'0 0.0
2018-Jun-17 18:00N 45°36' W 122°41'0 0.0
2018-Jun-17 17:30N 45°36' W 122°41'0 0.0
2018-Jun-17 16:48N 45°36' W 122°41'0 0.0
2018-Jun-17 16:30N 45°36' W 122°41'0 0.0
2018-Jun-17 15:54N 45°36' W 122°41'0 1.2
2018-Jun-17 15:28N 45°37' W 122°42'3 7.1
2018-Jun-17 14:59N 45°39' W 122°45'0 0.8
2018-Jun-17 14:30N 45°39' W 122°45'3 5.1
2018-Jun-17 14:00N 45°37' W 122°42'1 1.6
2018-Jun-17 13:23N 45°36' W 122°41'0 0.0
2018-Jun-17 12:59N 45°36' W 122°41'0 0.0
2018-Jun-17 12:29N 45°36' W 122°41'2 4.8
2018-Jun-17 11:59N 45°38' W 122°44'2 5.1
2018-Jun-17 11:29N 45°40' W 122°46'4 8.8
2018-Jun-17 11:00N 45°37' W 122°42'1 1.1
2018-Jun-17 10:29N 45°36' W 122°41'0 0.0
2018-Jun-17 09:32N 45°36' W 122°41'0 0.0
2018-Jun-17 09:23N 45°36' W 122°41'0 0.0
2018-Jun-17 08:56N 45°36' W 122°41'0 0.0
2018-Jun-17 08:29N 45°36' W 122°41'0 0.0
2018-Jun-17 07:56N 45°36' W 122°41'0 0.0
2018-Jun-17 07:29N 45°36' W 122°41'0 0.0
2018-Jun-17 06:56N 45°36' W 122°41'0 0.0
2018-Jun-17 06:29N 45°36' W 122°41'0 0.0
2018-Jun-17 05:59N 45°36' W 122°41'0 0.0
2018-Jun-17 05:29N 45°36' W 122°41'0 0.0
2018-Jun-17 04:50N 45°36' W 122°41'0 0.0
2018-Jun-17 04:29N 45°36' W 122°41'0 0.0
2018-Jun-17 03:59N 45°36' W 122°41'0 0.0
2018-Jun-17 03:29N 45°36' W 122°41'0 0.0
2018-Jun-17 02:59N 45°36' W 122°41'0 0.0
2018-Jun-17 02:29N 45°36' W 122°41'0 0.0
2018-Jun-17 01:50N 45°36' W 122°41'0 0.0
2018-Jun-17 01:26N 45°36' W 122°41'0 0.0
2018-Jun-17 00:44N 45°36' W 122°41'0 0.0
2018-Jun-17 00:29N 45°36' W 122°41'0 0.0
2018-Jun-16 23:59N 45°36' W 122°41'0 0.0
2018-Jun-16 23:26N 45°36' W 122°41'0 0.0
2018-Jun-16 22:50N 45°36' W 122°41'0 0.0
2018-Jun-16 22:29N 45°36' W 122°41'0 0.0
2018-Jun-16 21:59N 45°36' W 122°41'0 0.0
2018-Jun-16 21:17N 45°36' W 122°41'0 0.0
2018-Jun-16 20:59N 45°36' W 122°41'0 0.0
2018-Jun-16 20:23N 45°36' W 122°41'0 0.0
2018-Jun-16 19:14N 45°36' W 122°41'0 0.0
2018-Jun-16 18:56N 45°36' W 122°41'0 0.0
2018-Jun-16 18:29N 45°36' W 122°41'0 0.0
2018-Jun-16 17:59N 45°36' W 122°41'0 0.0
2018-Jun-16 17:17N 45°36' W 122°41'0 0.0
2018-Jun-16 16:56N 45°36' W 122°41'0 0.0
2018-Jun-16 16:29N 45°36' W 122°41'0 0.0
2018-Jun-16 15:56N 45°36' W 122°41'0 0.0
2018-Jun-16 15:26N 45°36' W 122°41'0 0.0
2018-Jun-16 14:56N 45°36' W 122°41'0 0.0
2018-Jun-16 14:26N 45°36' W 122°41'0 0.0
2018-Jun-16 13:59N 45°36' W 122°41'0 0.0
2018-Jun-16 13:23N 45°36' W 122°41'0 0.0
2018-Jun-16 12:53N 45°36' W 122°41'0 0.0
2018-Jun-16 12:26N 45°36' W 122°41'0 0.0
2018-Jun-16 11:59N 45°36' W 122°41'0 0.0
2018-Jun-16 11:29N 45°36' W 122°41'0 0.0
2018-Jun-16 10:59N 45°36' W 122°41'0 0.0
2018-Jun-16 10:23N 45°36' W 122°41'0 0.0
2018-Jun-16 09:59N 45°36' W 122°41'0 0.0
2018-Jun-16 09:20N 45°36' W 122°41'0 0.0
2018-Jun-16 08:59N 45°36' W 122°41'0 0.0
2018-Jun-16 08:20N 45°36' W 122°41'0 0.0
2018-Jun-16 07:59N 45°36' W 122°41'0 0.0
2018-Jun-16 07:20N 45°36' W 122°41'0 0.0
2018-Jun-16 06:59N 45°36' W 122°41'0 0.0
2018-Jun-16 06:29N 45°36' W 122°41'0 0.0
2018-Jun-16 05:56N 45°36' W 122°41'0 0.0
2018-Jun-16 05:26N 45°36' W 122°41'0 0.0
2018-Jun-16 04:26N 45°36' W 122°41'0 0.0
2018-Jun-16 03:41N 45°36' W 122°41'0 0.0
2018-Jun-16 03:29N 45°36' W 122°41'0 0.0
2018-Jun-16 02:59N 45°36' W 122°41'0 0.0
2018-Jun-16 02:23N 45°36' W 122°41'0 0.0
2018-Jun-16 01:50N 45°36' W 122°41'0 0.0
2018-Jun-16 01:29N 45°36' W 122°41'0 0.0
2018-Jun-16 01:00N 45°36' W 122°41'3 5.2
2018-Jun-16 00:30N 45°38' W 122°44'4 7.1
2018-Jun-15 23:59N 45°41' W 122°46'0 0.9
2018-Jun-15 23:30N 45°41' W 122°47'2 4.7
2018-Jun-15 23:00N 45°39' W 122°45'0 0.0
2018-Jun-15 22:23N 45°39' W 122°45'3 6.6
2018-Jun-15 22:00N 45°37' W 122°42'1 2.2
2018-Jun-15 21:30N 45°36' W 122°41'0 0.2
2018-Jun-15 20:58N 45°36' W 122°41'0 0.0
2018-Jun-15 20:19N 45°36' W 122°41'0 0.0
2018-Jun-15 19:58N 45°36' W 122°41'0 0.0
2018-Jun-15 19:28N 45°36' W 122°41'0 0.0
2018-Jun-15 18:55N 45°36' W 122°41'0 0.0
2018-Jun-15 18:22N 45°36' W 122°41'0 0.0
2018-Jun-15 17:46N 45°36' W 122°41'0 0.0
2018-Jun-15 17:19N 45°36' W 122°41'0 0.0
2018-Jun-15 16:52N 45°36' W 122°41'0 0.0
2018-Jun-15 16:28N 45°36' W 122°41'0 0.0
2018-Jun-15 15:49N 45°36' W 122°41'0 0.0
2018-Jun-15 15:28N 45°36' W 122°41'0 0.0
2018-Jun-15 14:55N 45°36' W 122°41'0 0.0
2018-Jun-15 14:25N 45°36' W 122°41'0 0.0
2018-Jun-15 13:43N 45°36' W 122°41'0 0.0
2018-Jun-15 13:28N 45°36' W 122°41'0 0.0
2018-Jun-15 12:52N 45°36' W 122°41'0 0.0
2018-Jun-15 12:22N 45°36' W 122°41'0 0.0
2018-Jun-15 11:46N 45°36' W 122°41'0 0.0
2018-Jun-15 11:28N 45°36' W 122°41'0 0.0
2018-Jun-15 10:58N 45°36' W 122°41'0 0.0
2018-Jun-15 10:25N 45°36' W 122°41'0 0.0
2018-Jun-15 09:31N 45°36' W 122°41'0 0.0
2018-Jun-15 09:25N 45°36' W 122°41'0 0.0
2018-Jun-15 08:58N 45°36' W 122°41'0 0.0
2018-Jun-15 08:25N 45°36' W 122°41'0 0.0
2018-Jun-15 07:58N 45°36' W 122°41'0 0.0
2018-Jun-15 06:58N 45°36' W 122°41'0 0.0
2018-Jun-15 06:25N 45°36' W 122°41'0 0.0
2018-Jun-15 05:52N 45°36' W 122°41'0 0.0
2018-Jun-15 05:25N 45°36' W 122°41'0 0.0
2018-Jun-15 04:58N 45°36' W 122°41'0 0.0
2018-Jun-15 04:19N 45°36' W 122°41'0 0.0
2018-Jun-15 03:58N 45°36' W 122°41'0 0.0
2018-Jun-15 02:58N 45°36' W 122°41'0 0.0
2018-Jun-15 02:28N 45°36' W 122°41'0 0.0
2018-Jun-15 01:58N 45°36' W 122°41'0 0.0
2018-Jun-15 01:19N 45°36' W 122°41'0 0.0
2018-Jun-15 00:52N 45°36' W 122°41'0 0.0
2018-Jun-15 00:28N 45°36' W 122°41'1 2.7
2018-Jun-15 00:00N 45°37' W 122°43'4 7.1
2018-Jun-14 23:28N 45°40' W 122°46'3 5.3
2018-Jun-14 22:59N 45°38' W 122°43'2 3.5
2018-Jun-14 22:30N 45°39' W 122°45'2 3.9
2018-Jun-14 22:01N 45°38' W 122°43'1 2.8
2018-Jun-14 21:30N 45°39' W 122°45'3 5.0
2018-Jun-14 20:50N 45°37' W 122°41'1 2.9
2018-Jun-14 20:30N 45°38' W 122°42'2 4.4
2018-Jun-14 19:56N 45°39' W 122°45'0 0.0
2018-Jun-14 19:23N 45°39' W 122°45'0 0.0
2018-Jun-14 18:59N 45°39' W 122°45'0 0.0
2018-Jun-14 18:26N 45°39' W 122°45'0 0.0
2018-Jun-14 17:56N 45°39' W 122°45'1 2.9
2018-Jun-14 17:30N 45°38' W 122°43'0 0.0
2018-Jun-14 16:59N 45°38' W 122°43'0 0.3
2018-Jun-14 16:30N 45°38' W 122°43'0 0.2
2018-Jun-14 15:56N 45°38' W 122°43'0 0.0
2018-Jun-14 15:17N 45°38' W 122°43'1 3.8
2018-Jun-14 14:59N 45°39' W 122°45'1 2.0
2018-Jun-14 14:23N 45°38' W 122°43'1 1.9
2018-Jun-14 14:00N 45°39' W 122°44'0 0.3
2018-Jun-14 13:13N 45°39' W 122°45'1 5.4
2018-Jun-14 12:59N 45°38' W 122°43'2 4.0
2018-Jun-14 12:30N 45°37' W 122°41'1 2.2
2018-Jun-14 11:59N 45°36' W 122°40'1 1.2
2018-Jun-14 11:27N 45°36' W 122°41'0 0.0
2018-Jun-14 11:00N 45°36' W 122°41'0 0.0
2018-Jun-14 10:27N 45°36' W 122°41'0 0.0
2018-Jun-14 09:42N 45°36' W 122°41'0 0.0
2018-Jun-14 09:30N 45°36' W 122°41'0 0.0
2018-Jun-14 09:00N 45°36' W 122°41'0 0.0
2018-Jun-14 08:30N 45°36' W 122°41'0 0.0
2018-Jun-14 08:00N 45°36' W 122°41'0 0.0
2018-Jun-14 07:30N 45°36' W 122°41'0 0.0
2018-Jun-14 06:51N 45°36' W 122°41'0 0.0
2018-Jun-14 06:27N 45°36' W 122°41'0 0.0
2018-Jun-14 06:00N 45°36' W 122°41'0 0.0
2018-Jun-14 05:21N 45°36' W 122°41'0 0.0
2018-Jun-14 05:00N 45°36' W 122°41'0 0.0
2018-Jun-14 04:30N 45°36' W 122°41'1 1.0
2018-Jun-14 03:57N 45°37' W 122°42'5 5.4
2018-Jun-14 03:01N 45°41' W 122°46'0 0.2
2018-Jun-14 03:00N 45°41' W 122°46'4 2.0
2018-Jun-14 01:03N 45°38' W 122°42'110.0
2018-Jun-14 00:57N 45°38' W 122°43'1 2.0
2018-Jun-14 00:21N 45°39' W 122°45'2 5.7
2018-Jun-14 00:01N 45°37' W 122°43'2 3.5
2018-Jun-13 23:31N 45°36' W 122°41'0 0.3
2018-Jun-13 22:57N 45°36' W 122°41'0 0.0
2018-Jun-13 22:30N 45°36' W 122°41'0 0.0
2018-Jun-13 22:00N 45°36' W 122°41'0 0.0
2018-Jun-13 21:30N 45°36' W 122°41'0 0.0
2018-Jun-13 21:00N 45°36' W 122°41'0 0.0
2018-Jun-13 20:30N 45°36' W 122°41'0 0.0
2018-Jun-13 19:57N 45°36' W 122°41'0 0.0
2018-Jun-13 19:30N 45°36' W 122°41'0 0.0
2018-Jun-13 19:00N 45°36' W 122°41'0 0.0
2018-Jun-13 18:30N 45°36' W 122°41'0 0.0
2018-Jun-13 18:00N 45°36' W 122°41'0 0.0
2018-Jun-13 17:24N 45°36' W 122°41'0 0.0
2018-Jun-13 16:48N 45°36' W 122°41'0 0.0
2018-Jun-13 16:30N 45°36' W 122°41'0 0.0
2018-Jun-13 16:00N 45°36' W 122°41'0 0.0
2018-Jun-13 15:24N 45°36' W 122°41'1 1.7
2018-Jun-13 15:00N 45°37' W 122°42'4 8.7
2018-Jun-13 14:30N 45°40' W 122°46'3 5.0
2018-Jun-13 13:58N 45°38' W 122°43'2 4.1
2018-Jun-13 13:30N 45°39' W 122°46'1 1.6
2018-Jun-13 12:57N 45°39' W 122°45'1 2.4
2018-Jun-13 12:26N 45°38' W 122°44'2 5.1
2018-Jun-13 11:59N 45°36' W 122°41'0 0.0
2018-Jun-13 11:29N 45°36' W 122°41'0 0.0
2018-Jun-13 10:59N 45°36' W 122°41'0 0.0
2018-Jun-13 10:29N 45°36' W 122°41'0 0.0
2018-Jun-13 09:59N 45°36' W 122°41'0 0.0
2018-Jun-13 09:26N 45°36' W 122°41'0 0.0
2018-Jun-13 08:53N 45°36' W 122°41'0 0.0
2018-Jun-13 08:29N 45°36' W 122°41'0 0.0
2018-Jun-13 07:56N 45°36' W 122°41'1 3.0
2018-Jun-13 07:30N 45°36' W 122°39'4 6.9
2018-Jun-13 06:59N 45°38' W 122°43'3 3.5
2018-Jun-13 06:06N 45°41' W 122°46'0 0.0
2018-Jun-13 06:00N 45°41' W 122°46'0 0.0
2018-Jun-13 05:30N 45°41' W 122°46'0 0.0
2018-Jun-13 04:57N 45°41' W 122°46'0 0.0
2018-Jun-13 04:24N 45°41' W 122°46'  

Dump ship's entire track history